sensor_id;sensor_type;location;lat;lon;timestamp;pressure;altitude;pressure_sealevel;temperature;humidity
57376;BME280;44805;45.048;5.062;2023-04-27T00:00:57;99697.53;;;15.22;70.79
57376;BME280;44805;45.048;5.062;2023-04-27T00:03:22;99693.13;;;15.14;72.07
57376;BME280;44805;45.048;5.062;2023-04-27T00:05:47;99693.94;;;15.15;71.33
57376;BME280;44805;45.048;5.062;2023-04-27T00:08:12;99689.53;;;14.84;72.38
57376;BME280;44805;45.048;5.062;2023-04-27T00:10:38;99689.16;;;15.10;72.98
57376;BME280;44805;45.048;5.062;2023-04-27T00:13:03;99678.75;;;15.09;72.58
57376;BME280;44805;45.048;5.062;2023-04-27T00:15:28;99673.44;;;15.09;72.75
57376;BME280;44805;45.048;5.062;2023-04-27T00:17:54;99680.16;;;14.96;72.80
57376;BME280;44805;45.048;5.062;2023-04-27T00:20:19;99671.69;;;14.78;72.53
57376;BME280;44805;45.048;5.062;2023-04-27T00:22:44;99673.72;;;14.76;73.58
57376;BME280;44805;45.048;5.062;2023-04-27T00:25:10;99685.16;;;14.45;73.29
57376;BME280;44805;45.048;5.062;2023-04-27T00:27:35;99677.66;;;14.49;73.28
57376;BME280;44805;45.048;5.062;2023-04-27T00:30:01;99679.94;;;14.52;74.77
57376;BME280;44805;45.048;5.062;2023-04-27T00:32:26;99682.13;;;14.48;74.40
57376;BME280;44805;45.048;5.062;2023-04-27T00:34:51;99686.47;;;14.41;73.29
57376;BME280;44805;45.048;5.062;2023-04-27T00:37:16;99678.75;;;14.63;73.91
57376;BME280;44805;45.048;5.062;2023-04-27T00:39:42;99688.66;;;14.69;73.66
57376;BME280;44805;45.048;5.062;2023-04-27T00:42:08;99699.41;;;14.36;74.54
57376;BME280;44805;45.048;5.062;2023-04-27T00:44:41;99691.25;;;14.15;75.38
57376;BME280;44805;45.048;5.062;2023-04-27T00:50:09;99681.91;;;14.27;75.17
57376;BME280;44805;45.048;5.062;2023-04-27T00:52:36;99680.66;;;14.46;74.05
57376;BME280;44805;45.048;5.062;2023-04-27T00:55:02;99683.13;;;14.56;73.74
57376;BME280;44805;45.048;5.062;2023-04-27T00:57:31;99674.28;;;14.32;75.82
57376;BME280;44805;45.048;5.062;2023-04-27T00:59:58;99677.56;;;14.34;75.53
57376;BME280;44805;45.048;5.062;2023-04-27T01:02:29;99672.22;;;14.42;74.25
57376;BME280;44805;45.048;5.062;2023-04-27T01:04:54;99676.44;;;14.28;75.63
57376;BME280;44805;45.048;5.062;2023-04-27T01:07:23;99669.72;;;14.18;75.38
57376;BME280;44805;45.048;5.062;2023-04-27T01:09:48;99675.44;;;13.98;77.51
57376;BME280;44805;45.048;5.062;2023-04-27T01:12:14;99682.41;;;13.99;77.19
57376;BME280;44805;45.048;5.062;2023-04-27T01:14:39;99682.25;;;14.24;76.36
57376;BME280;44805;45.048;5.062;2023-04-27T01:17:04;99677.97;;;14.23;76.90
57376;BME280;44805;45.048;5.062;2023-04-27T01:19:30;99686.28;;;14.11;77.09
57376;BME280;44805;45.048;5.062;2023-04-27T01:21:56;99686.19;;;14.05;77.26
57376;BME280;44805;45.048;5.062;2023-04-27T01:24:21;99698.66;;;13.80;78.09
57376;BME280;44805;45.048;5.062;2023-04-27T01:26:46;99698.47;;;13.81;77.57
57376;BME280;44805;45.048;5.062;2023-04-27T01:29:13;99700.59;;;13.94;77.21
57376;BME280;44805;45.048;5.062;2023-04-27T01:31:38;99698.97;;;13.85;77.85
57376;BME280;44805;45.048;5.062;2023-04-27T01:34:05;99698.66;;;13.80;77.73
57376;BME280;44805;45.048;5.062;2023-04-27T01:36:30;99698.84;;;13.70;79.18
57376;BME280;44805;45.048;5.062;2023-04-27T01:38:56;99686.28;;;13.72;79.32
57376;BME280;44805;45.048;5.062;2023-04-27T01:41:22;99691.38;;;13.82;79.29
57376;BME280;44805;45.048;5.062;2023-04-27T01:43:47;99689.38;;;13.84;78.55
57376;BME280;44805;45.048;5.062;2023-04-27T01:46:13;99693.38;;;13.80;77.94
57376;BME280;44805;45.048;5.062;2023-04-27T01:48:51;99686.94;;;13.66;78.82
57376;BME280;44805;45.048;5.062;2023-04-27T01:51:17;99697.84;;;13.79;77.63
57376;BME280;44805;45.048;5.062;2023-04-27T01:53:42;99701.72;;;13.44;79.81
57376;BME280;44805;45.048;5.062;2023-04-27T01:56:07;99703.06;;;13.40;80.18
57376;BME280;44805;45.048;5.062;2023-04-27T01:58:32;99700.19;;;13.58;78.80
57376;BME280;44805;45.048;5.062;2023-04-27T02:00:58;99704.34;;;13.60;77.99
57376;BME280;44805;45.048;5.062;2023-04-27T02:06:26;99700.72;;;13.45;78.29
57376;BME280;44805;45.048;5.062;2023-04-27T02:08:51;99697.59;;;13.50;77.86
57376;BME280;44805;45.048;5.062;2023-04-27T02:11:17;99697.75;;;13.56;77.31
57376;BME280;44805;45.048;5.062;2023-04-27T02:13:42;99702.72;;;13.43;78.21
57376;BME280;44805;45.048;5.062;2023-04-27T02:16:07;99705.72;;;13.32;79.45
57376;BME280;44805;45.048;5.062;2023-04-27T02:18:36;99706.66;;;13.22;78.74
57376;BME280;44805;45.048;5.062;2023-04-27T02:21:06;99712.28;;;13.19;79.70
57376;BME280;44805;45.048;5.062;2023-04-27T02:23:32;99708.34;;;12.99;80.23
57376;BME280;44805;45.048;5.062;2023-04-27T02:25:58;99708.66;;;13.04;80.59
57376;BME280;44805;45.048;5.062;2023-04-27T02:28:23;99708.34;;;12.91;80.53
57376;BME280;44805;45.048;5.062;2023-04-27T02:30:49;99704.69;;;12.92;80.90
57376;BME280;44805;45.048;5.062;2023-04-27T02:33:14;99705.19;;;12.95;81.31
57376;BME280;44805;45.048;5.062;2023-04-27T02:35:40;99702.38;;;12.97;79.80
57376;BME280;44805;45.048;5.062;2023-04-27T02:38:05;99705.34;;;12.86;81.01
57376;BME280;44805;45.048;5.062;2023-04-27T02:40:30;99704.16;;;12.55;82.15
57376;BME280;44805;45.048;5.062;2023-04-27T02:42:55;99710.25;;;12.64;82.46
57376;BME280;44805;45.048;5.062;2023-04-27T02:45:21;99710.25;;;12.64;82.29
57376;BME280;44805;45.048;5.062;2023-04-27T02:47:51;99709.31;;;12.81;81.19
57376;BME280;44805;45.048;5.062;2023-04-27T02:50:17;99708.63;;;12.71;82.28
57376;BME280;44805;45.048;5.062;2023-04-27T02:52:42;99706.84;;;12.80;82.03
57376;BME280;44805;45.048;5.062;2023-04-27T02:55:07;99706.31;;;12.76;81.82
57376;BME280;44805;45.048;5.062;2023-04-27T02:57:33;99701.72;;;12.70;81.66
57376;BME280;44805;45.048;5.062;2023-04-27T02:59:58;99701.72;;;12.78;82.20
57376;BME280;44805;45.048;5.062;2023-04-27T03:02:23;99694.59;;;12.71;82.60
57376;BME280;44805;45.048;5.062;2023-04-27T03:04:52;99697.38;;;12.53;82.81
57376;BME280;44805;45.048;5.062;2023-04-27T03:07:19;99692.09;;;12.53;82.66
57376;BME280;44805;45.048;5.062;2023-04-27T03:09:44;99696.56;;;12.69;82.15
57376;BME280;44805;45.048;5.062;2023-04-27T03:12:10;99707.28;;;12.51;82.54
57376;BME280;44805;45.048;5.062;2023-04-27T03:14:35;99713.56;;;12.58;82.20
57376;BME280;44805;45.048;5.062;2023-04-27T03:17:01;99716.13;;;12.25;84.17
57376;BME280;44805;45.048;5.062;2023-04-27T03:22:30;99711.16;;;12.22;84.45
57376;BME280;44805;45.048;5.062;2023-04-27T03:24:55;99704.94;;;12.40;83.86
57376;BME280;44805;45.048;5.062;2023-04-27T03:27:20;99696.88;;;12.49;83.15
57376;BME280;44805;45.048;5.062;2023-04-27T03:29:45;99697.72;;;12.58;82.66
57376;BME280;44805;45.048;5.062;2023-04-27T03:32:11;99689.47;;;12.61;81.87
57376;BME280;44805;45.048;5.062;2023-04-27T03:34:36;99698.06;;;12.55;82.08
57376;BME280;44805;45.048;5.062;2023-04-27T03:37:01;99699.69;;;12.48;82.42
57376;BME280;44805;45.048;5.062;2023-04-27T03:39:26;99697.88;;;12.48;82.66
57376;BME280;44805;45.048;5.062;2023-04-27T03:41:52;99690.81;;;12.57;82.45
57376;BME280;44805;45.048;5.062;2023-04-27T03:44:17;99683.03;;;12.72;81.93
57376;BME280;44805;45.048;5.062;2023-04-27T03:46:42;99685.84;;;12.70;82.18
57376;BME280;44805;45.048;5.062;2023-04-27T03:49:08;99690.59;;;12.50;82.63
57376;BME280;44805;45.048;5.062;2023-04-27T03:51:33;99695.00;;;12.33;83.29
57376;BME280;44805;45.048;5.062;2023-04-27T03:53:58;99692.22;;;12.35;83.25
57376;BME280;44805;45.048;5.062;2023-04-27T03:56:24;99687.75;;;12.35;82.86
57376;BME280;44805;45.048;5.062;2023-04-27T03:58:49;99702.13;;;12.33;83.26
57376;BME280;44805;45.048;5.062;2023-04-27T04:01:15;99703.97;;;12.49;82.55
57376;BME280;44805;45.048;5.062;2023-04-27T04:06:43;99697.75;;;12.15;83.68
57376;BME280;44805;45.048;5.062;2023-04-27T04:09:08;99701.28;;;12.32;83.08
57376;BME280;44805;45.048;5.062;2023-04-27T04:11:34;99703.59;;;12.27;83.58
57376;BME280;44805;45.048;5.062;2023-04-27T04:13:59;99712.53;;;12.43;83.18
57376;BME280;44805;45.048;5.062;2023-04-27T04:16:25;99704.63;;;12.43;83.52
57376;BME280;44805;45.048;5.062;2023-04-27T04:18:50;99701.63;;;12.37;83.44
57376;BME280;44805;45.048;5.062;2023-04-27T04:21:15;99700.75;;;12.21;83.87
57376;BME280;44805;45.048;5.062;2023-04-27T04:23:41;99700.88;;;12.11;84.96
57376;BME280;44805;45.048;5.062;2023-04-27T04:26:06;99711.97;;;12.14;84.71
57376;BME280;44805;45.048;5.062;2023-04-27T04:28:34;99708.66;;;12.12;84.65
57376;BME280;44805;45.048;5.062;2023-04-27T04:31:01;99706.69;;;12.14;85.16
57376;BME280;44805;45.048;5.062;2023-04-27T04:36:16;99720.34;;;12.10;85.17
57376;BME280;44805;45.048;5.062;2023-04-27T04:38:42;99723.34;;;12.15;84.98
57376;BME280;44805;45.048;5.062;2023-04-27T04:41:07;99724.56;;;12.29;84.38
57376;BME280;44805;45.048;5.062;2023-04-27T04:43:34;99726.75;;;12.42;83.61
57376;BME280;44805;45.048;5.062;2023-04-27T04:45:59;99723.41;;;12.31;83.80
57376;BME280;44805;45.048;5.062;2023-04-27T04:51:27;99736.56;;;12.23;83.81
57376;BME280;44805;45.048;5.062;2023-04-27T04:53:53;99741.47;;;12.10;84.54
57376;BME280;44805;45.048;5.062;2023-04-27T04:56:18;99734.13;;;12.30;84.61
57376;BME280;44805;45.048;5.062;2023-04-27T04:58:43;99741.91;;;12.31;83.45
57376;BME280;44805;45.048;5.062;2023-04-27T05:01:08;99744.88;;;12.36;83.37
57376;BME280;44805;45.048;5.062;2023-04-27T05:03:35;99740.25;;;12.38;83.50
57376;BME280;44805;45.048;5.062;2023-04-27T05:06:00;99752.72;;;12.20;84.34
57376;BME280;44805;45.048;5.062;2023-04-27T05:08:25;99758.72;;;12.38;83.05
57376;BME280;44805;45.048;5.062;2023-04-27T05:10:51;99754.78;;;12.43;83.33
57376;BME280;44805;45.048;5.062;2023-04-27T05:13:17;99769.13;;;12.40;82.90
57376;BME280;44805;45.048;5.062;2023-04-27T05:15:43;99763.66;;;12.33;82.11
57376;BME280;44805;45.048;5.062;2023-04-27T05:21:14;99765.25;;;12.60;79.90
57376;BME280;44805;45.048;5.062;2023-04-27T05:23:40;99774.16;;;12.59;79.63
57376;BME280;44805;45.048;5.062;2023-04-27T05:26:12;99771.69;;;12.74;78.73
57376;BME280;44805;45.048;5.062;2023-04-27T05:28:37;99763.41;;;12.61;77.87
57376;BME280;44805;45.048;5.062;2023-04-27T05:31:03;99762.38;;;12.46;78.93
57376;BME280;44805;45.048;5.062;2023-04-27T05:39:24;99765.72;;;12.56;78.22
57376;BME280;44805;45.048;5.062;2023-04-27T05:41:50;99764.41;;;12.52;78.26
57376;BME280;44805;45.048;5.062;2023-04-27T05:44:15;99749.72;;;12.57;79.54
57376;BME280;44805;45.048;5.062;2023-04-27T05:46:40;99756.84;;;12.65;81.14
57376;BME280;44805;45.048;5.062;2023-04-27T05:51:55;99756.88;;;12.81;80.57
57376;BME280;44805;45.048;5.062;2023-04-27T05:54:23;99753.25;;;12.82;79.32
57376;BME280;44805;45.048;5.062;2023-04-27T05:56:48;99767.09;;;12.85;78.48
57376;BME280;44805;45.048;5.062;2023-04-27T05:59:15;99756.53;;;12.85;78.84
57376;BME280;44805;45.048;5.062;2023-04-27T06:01:41;99752.59;;;12.89;78.36
57376;BME280;44805;45.048;5.062;2023-04-27T06:07:10;99761.84;;;12.93;78.46
57376;BME280;44805;45.048;5.062;2023-04-27T06:09:36;99753.94;;;13.01;78.96
57376;BME280;44805;45.048;5.062;2023-04-27T06:12:04;99763.16;;;13.05;79.60
57376;BME280;44805;45.048;5.062;2023-04-27T06:14:30;99774.72;;;12.96;79.41
57376;BME280;44805;45.048;5.062;2023-04-27T06:16:55;99769.94;;;12.91;80.33
57376;BME280;44805;45.048;5.062;2023-04-27T06:22:24;99771.41;;;12.94;79.20
57376;BME280;44805;45.048;5.062;2023-04-27T06:24:49;99764.50;;;13.09;80.06
57376;BME280;44805;45.048;5.062;2023-04-27T06:27:14;99772.28;;;13.11;79.79
57376;BME280;44805;45.048;5.062;2023-04-27T06:29:40;99772.44;;;13.01;80.39
57376;BME280;44805;45.048;5.062;2023-04-27T06:32:05;99780.84;;;12.96;80.70
57376;BME280;44805;45.048;5.062;2023-04-27T06:37:34;99776.78;;;13.35;80.20
57376;BME280;44805;45.048;5.062;2023-04-27T06:39:59;99775.09;;;13.75;78.05
57376;BME280;44805;45.048;5.062;2023-04-27T06:42:24;99779.19;;;13.94;76.83
57376;BME280;44805;45.048;5.062;2023-04-27T06:44:52;99755.63;;;14.15;75.55
57376;BME280;44805;45.048;5.062;2023-04-27T06:47:17;99761.91;;;14.22;74.78
57376;BME280;44805;45.048;5.062;2023-04-27T06:52:45;99758.59;;;14.60;71.20
57376;BME280;44805;45.048;5.062;2023-04-27T06:55:11;99755.56;;;14.71;69.49
57376;BME280;44805;45.048;5.062;2023-04-27T06:57:36;99745.94;;;15.01;70.25
57376;BME280;44805;45.048;5.062;2023-04-27T07:00:01;99745.34;;;15.14;68.66
57376;BME280;44805;45.048;5.062;2023-04-27T07:02:27;99743.19;;;15.32;67.58
57376;BME280;44805;45.048;5.062;2023-04-27T07:07:55;99742.84;;;15.50;65.94
57376;BME280;44805;45.048;5.062;2023-04-27T07:10:21;99733.06;;;15.51;64.44
57376;BME280;44805;45.048;5.062;2023-04-27T07:12:46;99737.47;;;15.58;63.96
57376;BME280;44805;45.048;5.062;2023-04-27T07:15:11;99733.50;;;15.77;63.64
57376;BME280;44805;45.048;5.062;2023-04-27T07:17:37;99733.16;;;15.95;62.67
57376;BME280;44805;45.048;5.062;2023-04-27T07:29:10;99724.50;;;16.96;56.84
57376;BME280;44805;45.048;5.062;2023-04-27T07:31:37;99718.94;;;16.90;56.53
57376;BME280;44805;45.048;5.062;2023-04-27T07:37:05;99730.09;;;16.64;56.92
57376;BME280;44805;45.048;5.062;2023-04-27T07:39:32;99724.88;;;16.56;55.44
57376;BME280;44805;45.048;5.062;2023-04-27T07:41:57;99715.53;;;16.60;56.61
57376;BME280;44805;45.048;5.062;2023-04-27T07:44:22;99725.34;;;16.60;55.84
57376;BME280;44805;45.048;5.062;2023-04-27T07:46:48;99728.25;;;16.80;55.61
57376;BME280;44805;45.048;5.062;2023-04-27T07:52:31;99730.50;;;17.04;55.24
57376;BME280;44805;45.048;5.062;2023-04-27T07:54:57;99730.75;;;17.09;55.45
57376;BME280;44805;45.048;5.062;2023-04-27T07:57:22;99729.75;;;16.89;55.65
57376;BME280;44805;45.048;5.062;2023-04-27T07:59:47;99725.41;;;17.03;55.27
57376;BME280;44805;45.048;5.062;2023-04-27T08:02:13;99736.47;;;17.06;55.07
57376;BME280;44805;45.048;5.062;2023-04-27T08:07:41;99740.91;;;17.21;53.29
57376;BME280;44805;45.048;5.062;2023-04-27T08:10:06;99736.94;;;17.10;53.94
57376;BME280;44805;45.048;5.062;2023-04-27T08:12:32;99731.59;;;17.10;52.59
57376;BME280;44805;45.048;5.062;2023-04-27T08:14:57;99735.34;;;17.16;53.61
57376;BME280;44805;45.048;5.062;2023-04-27T08:17:22;99733.81;;;17.06;56.29
57376;BME280;44805;45.048;5.062;2023-04-27T08:19:51;99742.34;;;17.23;56.91
57376;BME280;44805;45.048;5.062;2023-04-27T08:22:16;99734.22;;;17.31;56.34
57376;BME280;44805;45.048;5.062;2023-04-27T08:24:42;99742.63;;;17.56;55.97
57376;BME280;44805;45.048;5.062;2023-04-27T08:27:07;99743.66;;;17.34;56.09
57376;BME280;44805;45.048;5.062;2023-04-27T08:29:33;99740.59;;;17.58;57.44
57376;BME280;44805;45.048;5.062;2023-04-27T08:31:59;99746.91;;;17.57;57.40
57376;BME280;44805;45.048;5.062;2023-04-27T08:34:25;99734.16;;;17.46;57.14
57376;BME280;44805;45.048;5.062;2023-04-27T08:36:51;99739.06;;;17.49;56.25
57376;BME280;44805;45.048;5.062;2023-04-27T08:39:16;99741.25;;;17.67;55.78
57376;BME280;44805;45.048;5.062;2023-04-27T08:41:42;99729.63;;;17.75;56.06
57376;BME280;44805;45.048;5.062;2023-04-27T08:44:07;99721.25;;;17.78;55.48
57376;BME280;44805;45.048;5.062;2023-04-27T08:46:33;99719.16;;;18.02;57.22
57376;BME280;44805;45.048;5.062;2023-04-27T08:48:58;99724.59;;;18.28;56.72
57376;BME280;44805;45.048;5.062;2023-04-27T08:51:26;99728.41;;;18.67;55.02
57376;BME280;44805;45.048;5.062;2023-04-27T08:53:53;99723.91;;;18.61;54.38
57376;BME280;44805;45.048;5.062;2023-04-27T08:56:19;99730.47;;;18.72;53.99
57376;BME280;44805;45.048;5.062;2023-04-27T08:58:44;99731.19;;;19.07;52.97
57376;BME280;44805;45.048;5.062;2023-04-27T09:01:10;99729.34;;;19.41;52.08
57376;BME280;44805;45.048;5.062;2023-04-27T09:03:35;99730.19;;;19.68;52.40
57376;BME280;44805;45.048;5.062;2023-04-27T09:09:03;99736.47;;;20.00;51.75
57376;BME280;44805;45.048;5.062;2023-04-27T09:13:55;99722.50;;;20.56;49.20
57376;BME280;44805;45.048;5.062;2023-04-27T09:16:28;99715.91;;;20.91;47.86
57376;BME280;44805;45.048;5.062;2023-04-27T09:19:07;99721.22;;;20.97;47.51
57376;BME280;44805;45.048;5.062;2023-04-27T09:24:54;99717.13;;;21.20;46.70
57376;BME280;44805;45.048;5.062;2023-04-27T09:27:20;99714.97;;;21.03;47.63
57376;BME280;44805;45.048;5.062;2023-04-27T09:29:45;99726.53;;;21.29;47.19
57376;BME280;44805;45.048;5.062;2023-04-27T09:32:14;99725.94;;;21.52;46.39
57376;BME280;44805;45.048;5.062;2023-04-27T09:34:41;99716.47;;;21.50;45.88
57376;BME280;44805;45.048;5.062;2023-04-27T09:37:07;99724.34;;;21.44;45.88
57376;BME280;44805;45.048;5.062;2023-04-27T09:39:34;99727.06;;;21.38;46.70
57376;BME280;44805;45.048;5.062;2023-04-27T09:42:00;99726.19;;;21.19;46.62
57376;BME280;44805;45.048;5.062;2023-04-27T09:44:26;99728.00;;;21.25;47.05
57376;BME280;44805;45.048;5.062;2023-04-27T09:46:52;99725.34;;;21.25;47.25
57376;BME280;44805;45.048;5.062;2023-04-27T09:49:19;99720.69;;;21.39;47.69
57376;BME280;44805;45.048;5.062;2023-04-27T09:51:46;99723.78;;;21.11;47.45
57376;BME280;44805;45.048;5.062;2023-04-27T09:54:11;99723.09;;;21.91;46.46
57376;BME280;44805;45.048;5.062;2023-04-27T10:01:47;99708.75;;;22.22;45.82
57376;BME280;44805;45.048;5.062;2023-04-27T10:07:11;99708.41;;;22.30;44.68
57376;BME280;44805;45.048;5.062;2023-04-27T10:09:41;99707.44;;;21.87;45.08
57376;BME280;44805;45.048;5.062;2023-04-27T10:12:20;99704.91;;;21.93;45.39
57376;BME280;44805;45.048;5.062;2023-04-27T10:14:52;99692.13;;;22.31;45.50
57376;BME280;44805;45.048;5.062;2023-04-27T10:17:22;99699.16;;;22.74;44.77
57376;BME280;44805;45.048;5.062;2023-04-27T10:19:53;99693.72;;;22.93;43.43
57376;BME280;44805;45.048;5.062;2023-04-27T10:22:21;99692.25;;;23.21;43.02
57376;BME280;44805;45.048;5.062;2023-04-27T10:24:50;99688.16;;;23.53;42.72
57376;BME280;44805;45.048;5.062;2023-04-27T10:27:17;99692.63;;;23.36;43.69
57376;BME280;44805;45.048;5.062;2023-04-27T10:29:48;99674.13;;;23.63;42.31
57376;BME280;44805;45.048;5.062;2023-04-27T10:32:19;99674.25;;;23.09;42.83
57376;BME280;44805;45.048;5.062;2023-04-27T10:37:39;99662.69;;;22.97;40.38
57376;BME280;44805;45.048;5.062;2023-04-27T10:40:06;99671.47;;;23.28;39.66
57376;BME280;44805;45.048;5.062;2023-04-27T10:42:31;99669.47;;;23.11;38.95
57376;BME280;44805;45.048;5.062;2023-04-27T10:44:57;99672.75;;;23.84;39.33
57376;BME280;44805;45.048;5.062;2023-04-27T10:47:22;99672.72;;;23.60;39.38
57376;BME280;44805;45.048;5.062;2023-04-27T10:49:51;99672.53;;;23.27;38.74
57376;BME280;44805;45.048;5.062;2023-04-27T10:52:16;99673.38;;;22.85;39.26
57376;BME280;44805;45.048;5.062;2023-04-27T10:54:44;99673.69;;;22.65;40.01
57376;BME280;44805;45.048;5.062;2023-04-27T10:57:10;99676.16;;;22.79;39.26
57376;BME280;44805;45.048;5.062;2023-04-27T10:59:56;99665.50;;;23.49;39.06
57376;BME280;44805;45.048;5.062;2023-04-27T11:02:24;99668.53;;;23.53;38.35
57376;BME280;44805;45.048;5.062;2023-04-27T11:04:50;99666.13;;;24.03;35.76
57376;BME280;44805;45.048;5.062;2023-04-27T11:07:27;99668.41;;;24.23;35.10
57376;BME280;44805;45.048;5.062;2023-04-27T11:09:53;99671.63;;;24.37;34.96
57376;BME280;44805;45.048;5.062;2023-04-27T11:12:18;99664.63;;;24.82;35.25
57376;BME280;44805;45.048;5.062;2023-04-27T11:14:49;99657.38;;;24.65;35.93
57376;BME280;44805;45.048;5.062;2023-04-27T11:17:15;99661.94;;;24.82;34.83
57376;BME280;44805;45.048;5.062;2023-04-27T11:19:44;99662.09;;;24.58;34.53
57376;BME280;44805;45.048;5.062;2023-04-27T11:25:13;99653.25;;;24.46;34.04
57376;BME280;44805;45.048;5.062;2023-04-27T11:27:39;99645.38;;;24.73;34.05
57376;BME280;44805;45.048;5.062;2023-04-27T11:30:05;99641.84;;;24.56;34.88
57376;BME280;44805;45.048;5.062;2023-04-27T11:32:35;99650.53;;;24.17;34.89
57376;BME280;44805;45.048;5.062;2023-04-27T11:38:03;99660.81;;;23.80;35.21
57376;BME280;44805;45.048;5.062;2023-04-27T11:40:28;99656.63;;;24.13;34.60
57376;BME280;44805;45.048;5.062;2023-04-27T11:42:57;99650.66;;;24.51;35.78
57376;BME280;44805;45.048;5.062;2023-04-27T11:45:24;99646.44;;;24.72;34.27
57376;BME280;44805;45.048;5.062;2023-04-27T11:47:49;99653.19;;;24.75;34.42
57376;BME280;44805;45.048;5.062;2023-04-27T11:55:59;99632.00;;;25.12;33.79
57376;BME280;44805;45.048;5.062;2023-04-27T11:58:28;99636.88;;;24.98;34.20
57376;BME280;44805;45.048;5.062;2023-04-27T12:00:57;99636.16;;;25.03;33.63
57376;BME280;44805;45.048;5.062;2023-04-27T12:03:22;99632.88;;;25.01;33.03
57376;BME280;44805;45.048;5.062;2023-04-27T12:08:51;99632.53;;;24.46;34.00
57376;BME280;44805;45.048;5.062;2023-04-27T12:11:17;99640.22;;;24.72;33.41
57376;BME280;44805;45.048;5.062;2023-04-27T12:13:42;99638.03;;;24.40;33.97
57376;BME280;44805;45.048;5.062;2023-04-27T12:16:09;99625.59;;;24.22;34.56
57376;BME280;44805;45.048;5.062;2023-04-27T12:18:34;99628.88;;;24.69;33.28
57376;BME280;44805;45.048;5.062;2023-04-27T12:21:18;99624.72;;;25.12;34.10
57376;BME280;44805;45.048;5.062;2023-04-27T12:23:44;99632.31;;;24.99;32.79
57376;BME280;44805;45.048;5.062;2023-04-27T12:26:10;99625.53;;;24.79;32.96
57376;BME280;44805;45.048;5.062;2023-04-27T12:28:35;99630.94;;;24.79;34.11
57376;BME280;44805;45.048;5.062;2023-04-27T12:31:04;99629.06;;;24.80;32.89
57376;BME280;44805;45.048;5.062;2023-04-27T12:33:29;99632.88;;;25.01;32.75
57376;BME280;44805;45.048;5.062;2023-04-27T12:38:59;99637.19;;;24.51;32.34
57376;BME280;44805;45.048;5.062;2023-04-27T12:41:25;99630.84;;;24.74;31.91
57376;BME280;44805;45.048;5.062;2023-04-27T12:43:51;99632.72;;;24.90;33.34
57376;BME280;44805;45.048;5.062;2023-04-27T12:46:16;99628.47;;;24.95;31.82
57376;BME280;44805;45.048;5.062;2023-04-27T12:48:42;99629.78;;;25.09;31.56
57376;BME280;44805;45.048;5.062;2023-04-27T12:54:10;99635.31;;;25.36;31.77
57376;BME280;44805;45.048;5.062;2023-04-27T12:56:36;99633.94;;;25.00;31.67
57376;BME280;44805;45.048;5.062;2023-04-27T12:59:02;99637.84;;;24.75;32.17
57376;BME280;44805;45.048;5.062;2023-04-27T13:01:28;99632.31;;;24.82;31.93
57376;BME280;44805;45.048;5.062;2023-04-27T13:03:54;99625.38;;;25.37;32.88
57376;BME280;44805;45.048;5.062;2023-04-27T13:06:32;99625.13;;;25.21;31.44
57376;BME280;44805;45.048;5.062;2023-04-27T13:08:58;99627.16;;;25.14;30.14
57376;BME280;44805;45.048;5.062;2023-04-27T13:11:23;99628.47;;;25.11;30.55
57376;BME280;44805;45.048;5.062;2023-04-27T13:13:49;99629.81;;;25.48;32.12
57376;BME280;44805;45.048;5.062;2023-04-27T13:16:14;99631.44;;;25.49;31.56
57376;BME280;44805;45.048;5.062;2023-04-27T13:18:40;99624.56;;;25.58;31.57
57376;BME280;44805;45.048;5.062;2023-04-27T13:21:11;99626.13;;;25.54;31.27
57376;BME280;44805;45.048;5.062;2023-04-27T13:23:36;99626.50;;;25.41;31.24
57376;BME280;44805;45.048;5.062;2023-04-27T13:26:02;99626.91;;;25.32;31.37
57376;BME280;44805;45.048;5.062;2023-04-27T13:28:27;99628.53;;;25.33;31.56
57376;BME280;44805;45.048;5.062;2023-04-27T13:30:52;99624.09;;;25.22;30.62
57376;BME280;44805;45.048;5.062;2023-04-27T13:33:17;99616.91;;;24.77;31.54
57376;BME280;44805;45.048;5.062;2023-04-27T13:35:52;99621.41;;;24.43;32.13
57376;BME280;44805;45.048;5.062;2023-04-27T13:38:17;99618.63;;;24.83;31.81
57376;BME280;44805;45.048;5.062;2023-04-27T13:40:43;99619.56;;;25.11;30.54
57376;BME280;44805;45.048;5.062;2023-04-27T13:43:08;99618.00;;;25.15;30.89
57376;BME280;44805;45.048;5.062;2023-04-27T13:45:33;99617.03;;;25.21;30.76
57376;BME280;44805;45.048;5.062;2023-04-27T13:47:59;99614.94;;;25.23;31.60
57376;BME280;44805;45.048;5.062;2023-04-27T13:50:24;99612.13;;;25.35;32.00
57376;BME280;44805;45.048;5.062;2023-04-27T13:52:49;99614.41;;;25.26;33.20
57376;BME280;44805;45.048;5.062;2023-04-27T13:55:15;99608.56;;;25.29;33.68
57376;BME280;44805;45.048;5.062;2023-04-27T13:57:40;99608.00;;;25.27;33.82
57376;BME280;44805;45.048;5.062;2023-04-27T14:00:05;99611.00;;;25.31;34.46
57376;BME280;44805;45.048;5.062;2023-04-27T14:07:47;99601.78;;;25.10;34.68
57376;BME280;44805;45.048;5.062;2023-04-27T14:10:12;99599.28;;;24.86;33.99
57376;BME280;44805;45.048;5.062;2023-04-27T14:12:38;99603.44;;;24.94;33.72
57376;BME280;44805;45.048;5.062;2023-04-27T14:15:04;99597.88;;;25.18;34.40
57376;BME280;44805;45.048;5.062;2023-04-27T14:17:30;99599.56;;;25.24;34.18
57376;BME280;44805;45.048;5.062;2023-04-27T14:19:55;99598.59;;;25.30;34.11
57376;BME280;44805;45.048;5.062;2023-04-27T14:22:20;99595.59;;;24.92;33.62
57376;BME280;44805;45.048;5.062;2023-04-27T14:24:46;99601.06;;;24.98;33.78
57376;BME280;44805;45.048;5.062;2023-04-27T14:27:11;99610.38;;;24.73;33.72
57376;BME280;44805;45.048;5.062;2023-04-27T14:29:36;99613.56;;;24.87;34.17
57376;BME280;44805;45.048;5.062;2023-04-27T14:32:02;99611.59;;;24.82;34.02
57376;BME280;44805;45.048;5.062;2023-04-27T14:34:30;99607.78;;;24.78;33.89
57376;BME280;44805;45.048;5.062;2023-04-27T14:39:58;99608.34;;;24.35;34.84
57376;BME280;44805;45.048;5.062;2023-04-27T14:42:24;99611.47;;;24.43;34.87
57376;BME280;44805;45.048;5.062;2023-04-27T14:44:49;99614.69;;;24.74;35.46
57376;BME280;44805;45.048;5.062;2023-04-27T14:47:15;99618.44;;;24.56;35.05